sensor_id;sensor_type;location;lat;lon;timestamp;P1;durP1;ratioP1;P2;durP2;ratioP2
18711;SDS011;9485;49.386;8.674;2022-09-03T00:04:23;1.13;;;0.95;;
18711;SDS011;9485;49.386;8.674;2022-09-03T00:09:54;0.90;;;0.75;;
18711;SDS011;9485;49.386;8.674;2022-09-03T00:15:21;2.47;;;1.17;;
18711;SDS011;9485;49.386;8.674;2022-09-03T00:20:45;1.05;;;0.93;;
18711;SDS011;9485;49.386;8.674;2022-09-03T00:26:19;3.90;;;1.00;;
18711;SDS011;9485;49.386;8.674;2022-09-03T00:31:47;1.90;;;1.13;;
18711;SDS011;9485;49.386;8.674;2022-09-03T00:37:16;1.60;;;0.80;;
18711;SDS011;9485;49.386;8.674;2022-09-03T00:42:38;0.95;;;0.75;;
18711;SDS011;9485;49.386;8.674;2022-09-03T00:48:13;1.98;;;1.10;;
18711;SDS011;9485;49.386;8.674;2022-09-03T00:53:48;1.77;;;0.73;;
18711;SDS011;9485;49.386;8.674;2022-09-03T00:59:25;0.95;;;0.88;;
18711;SDS011;9485;49.386;8.674;2022-09-03T01:05:00;1.10;;;1.00;;
18711;SDS011;9485;49.386;8.674;2022-09-03T01:10:39;2.55;;;0.80;;
18711;SDS011;9485;49.386;8.674;2022-09-03T01:16:13;0.88;;;0.77;;
18711;SDS011;9485;49.386;8.674;2022-09-03T01:21:54;1.10;;;1.00;;
18711;SDS011;9485;49.386;8.674;2022-09-03T01:27:43;1.10;;;0.90;;
18711;SDS011;9485;49.386;8.674;2022-09-03T01:33:21;0.98;;;0.88;;
18711;SDS011;9485;49.386;8.674;2022-09-03T01:38:54;1.60;;;0.80;;
18711;SDS011;9485;49.386;8.674;2022-09-03T01:44:23;0.77;;;0.70;;
18711;SDS011;9485;49.386;8.674;2022-09-03T01:49:59;0.80;;;0.80;;
18711;SDS011;9485;49.386;8.674;2022-09-03T01:55:30;2.00;;;0.90;;
18711;SDS011;9485;49.386;8.674;2022-09-03T02:01:06;1.92;;;0.80;;
18711;SDS011;9485;49.386;8.674;2022-09-03T02:06:36;2.33;;;1.25;;
18711;SDS011;9485;49.386;8.674;2022-09-03T02:11:57;1.13;;;0.90;;
18711;SDS011;9485;49.386;8.674;2022-09-03T02:17:28;1.25;;;1.15;;
18711;SDS011;9485;49.386;8.674;2022-09-03T02:22:50;1.05;;;0.93;;
18711;SDS011;9485;49.386;8.674;2022-09-03T02:28:13;1.00;;;0.90;;
18711;SDS011;9485;49.386;8.674;2022-09-03T02:33:36;0.80;;;0.80;;
18711;SDS011;9485;49.386;8.674;2022-09-03T02:39:03;1.67;;;0.95;;
18711;SDS011;9485;49.386;8.674;2022-09-03T02:44:25;0.80;;;0.80;;
18711;SDS011;9485;49.386;8.674;2022-09-03T02:49:53;0.80;;;0.80;;
18711;SDS011;9485;49.386;8.674;2022-09-03T02:55:14;1.23;;;1.05;;
18711;SDS011;9485;49.386;8.674;2022-09-03T03:00:35;1.48;;;0.88;;
18711;SDS011;9485;49.386;8.674;2022-09-03T03:05:57;0.80;;;0.77;;
18711;SDS011;9485;49.386;8.674;2022-09-03T03:11:23;1.00;;;0.90;;
18711;SDS011;9485;49.386;8.674;2022-09-03T03:16:44;1.10;;;1.00;;
18711;SDS011;9485;49.386;8.674;2022-09-03T03:22:06;1.17;;;0.80;;
18711;SDS011;9485;49.386;8.674;2022-09-03T03:27:27;0.77;;;0.77;;
18711;SDS011;9485;49.386;8.674;2022-09-03T03:32:47;0.82;;;0.82;;
18711;SDS011;9485;49.386;8.674;2022-09-03T03:38:10;1.40;;;0.88;;
18711;SDS011;9485;49.386;8.674;2022-09-03T03:43:30;2.78;;;1.13;;
18711;SDS011;9485;49.386;8.674;2022-09-03T03:48:51;2.20;;;1.00;;
18711;SDS011;9485;49.386;8.674;2022-09-03T03:54:13;1.00;;;1.00;;
18711;SDS011;9485;49.386;8.674;2022-09-03T03:59:33;0.80;;;0.80;;
18711;SDS011;9485;49.386;8.674;2022-09-03T04:04:54;1.20;;;0.80;;
18711;SDS011;9485;49.386;8.674;2022-09-03T04:10:17;0.93;;;0.90;;
18711;SDS011;9485;49.386;8.674;2022-09-03T04:15:38;0.80;;;0.80;;
18711;SDS011;9485;49.386;8.674;2022-09-03T04:21:00;1.20;;;0.90;;
18711;SDS011;9485;49.386;8.674;2022-09-03T04:26:25;1.10;;;1.00;;
18711;SDS011;9485;49.386;8.674;2022-09-03T04:31:49;1.10;;;0.90;;
18711;SDS011;9485;49.386;8.674;2022-09-03T04:37:27;1.38;;;0.98;;
18711;SDS011;9485;49.386;8.674;2022-09-03T04:42:49;1.63;;;1.10;;
18711;SDS011;9485;49.386;8.674;2022-09-03T04:48:10;0.90;;;0.90;;
18711;SDS011;9485;49.386;8.674;2022-09-03T04:53:31;1.63;;;1.10;;
18711;SDS011;9485;49.386;8.674;2022-09-03T04:58:56;2.60;;;1.02;;
18711;SDS011;9485;49.386;8.674;2022-09-03T05:04:18;1.15;;;1.00;;
18711;SDS011;9485;49.386;8.674;2022-09-03T05:09:39;2.03;;;1.27;;
18711;SDS011;9485;49.386;8.674;2022-09-03T05:15:01;1.60;;;1.50;;
18711;SDS011;9485;49.386;8.674;2022-09-03T05:20:22;1.10;;;1.00;;
18711;SDS011;9485;49.386;8.674;2022-09-03T05:25:53;1.48;;;1.00;;
18711;SDS011;9485;49.386;8.674;2022-09-03T05:31:17;1.02;;;0.93;;
18711;SDS011;9485;49.386;8.674;2022-09-03T05:36:40;1.20;;;1.10;;
18711;SDS011;9485;49.386;8.674;2022-09-03T05:42:01;1.98;;;1.08;;
18711;SDS011;9485;49.386;8.674;2022-09-03T05:47:23;2.97;;;1.20;;
18711;SDS011;9485;49.386;8.674;2022-09-03T05:52:43;1.73;;;1.10;;
18711;SDS011;9485;49.386;8.674;2022-09-03T05:58:04;1.00;;;1.00;;
18711;SDS011;9485;49.386;8.674;2022-09-03T06:03:26;0.85;;;0.80;;
18711;SDS011;9485;49.386;8.674;2022-09-03T06:08:47;2.08;;;1.15;;
18711;SDS011;9485;49.386;8.674;2022-09-03T06:14:09;1.73;;;1.50;;
18711;SDS011;9485;49.386;8.674;2022-09-03T06:19:33;1.30;;;1.20;;
18711;SDS011;9485;49.386;8.674;2022-09-03T06:24:55;1.48;;;1.38;;
18711;SDS011;9485;49.386;8.674;2022-09-03T06:30:16;1.30;;;1.20;;
18711;SDS011;9485;49.386;8.674;2022-09-03T06:35:38;3.22;;;1.55;;
18711;SDS011;9485;49.386;8.674;2022-09-03T06:41:00;1.40;;;1.30;;
18711;SDS011;9485;49.386;8.674;2022-09-03T06:46:23;2.47;;;1.90;;
18711;SDS011;9485;49.386;8.674;2022-09-03T06:51:45;2.40;;;1.57;;
18711;SDS011;9485;49.386;8.674;2022-09-03T06:57:06;1.90;;;1.43;;
18711;SDS011;9485;49.386;8.674;2022-09-03T07:02:27;2.10;;;1.90;;
18711;SDS011;9485;49.386;8.674;2022-09-03T07:07:49;3.43;;;1.90;;
18711;SDS011;9485;49.386;8.674;2022-09-03T07:13:09;1.93;;;1.70;;
18711;SDS011;9485;49.386;8.674;2022-09-03T07:18:30;1.67;;;1.57;;
18711;SDS011;9485;49.386;8.674;2022-09-03T07:23:54;1.53;;;1.40;;
18711;SDS011;9485;49.386;8.674;2022-09-03T07:29:16;1.50;;;1.40;;
18711;SDS011;9485;49.386;8.674;2022-09-03T07:34:38;1.67;;;1.33;;
18711;SDS011;9485;49.386;8.674;2022-09-03T07:40:00;2.40;;;1.60;;
18711;SDS011;9485;49.386;8.674;2022-09-03T07:45:22;2.00;;;1.60;;
18711;SDS011;9485;49.386;8.674;2022-09-03T07:50:42;2.43;;;1.70;;
18711;SDS011;9485;49.386;8.674;2022-09-03T07:56:07;2.20;;;2.00;;
18711;SDS011;9485;49.386;8.674;2022-09-03T08:01:29;1.80;;;1.43;;
18711;SDS011;9485;49.386;8.674;2022-09-03T08:06:51;2.20;;;1.90;;
18711;SDS011;9485;49.386;8.674;2022-09-03T08:12:14;2.13;;;1.90;;
18711;SDS011;9485;49.386;8.674;2022-09-03T08:17:35;10.43;;;2.13;;
18711;SDS011;9485;49.386;8.674;2022-09-03T08:22:59;2.17;;;1.80;;
18711;SDS011;9485;49.386;8.674;2022-09-03T08:28:22;1.93;;;1.80;;
18711;SDS011;9485;49.386;8.674;2022-09-03T08:33:43;1.83;;;1.73;;
18711;SDS011;9485;49.386;8.674;2022-09-03T08:39:09;2.03;;;1.83;;
18711;SDS011;9485;49.386;8.674;2022-09-03T08:44:33;2.53;;;1.90;;
18711;SDS011;9485;49.386;8.674;2022-09-03T08:50:06;1.70;;;1.60;;
18711;SDS011;9485;49.386;8.674;2022-09-03T08:55:36;1.97;;;1.87;;
18711;SDS011;9485;49.386;8.674;2022-09-03T09:01:13;1.90;;;1.80;;
18711;SDS011;9485;49.386;8.674;2022-09-03T09:06:45;2.00;;;1.90;;
18711;SDS011;9485;49.386;8.674;2022-09-03T09:12:13;2.20;;;2.00;;
18711;SDS011;9485;49.386;8.674;2022-09-03T09:17:55;1.80;;;1.70;;
18711;SDS011;9485;49.386;8.674;2022-09-03T09:23:30;2.70;;;2.00;;
18711;SDS011;9485;49.386;8.674;2022-09-03T09:28:59;2.60;;;2.00;;
18711;SDS011;9485;49.386;8.674;2022-09-03T09:34:32;2.73;;;2.10;;
18711;SDS011;9485;49.386;8.674;2022-09-03T09:39:55;2.40;;;2.20;;
18711;SDS011;9485;49.386;8.674;2022-09-03T09:45:18;2.47;;;2.17;;
18711;SDS011;9485;49.386;8.674;2022-09-03T09:50:43;2.10;;;1.90;;
18711;SDS011;9485;49.386;8.674;2022-09-03T09:56:03;2.50;;;2.00;;
18711;SDS011;9485;49.386;8.674;2022-09-03T10:01:26;2.77;;;1.93;;
18711;SDS011;9485;49.386;8.674;2022-09-03T10:06:53;3.03;;;2.20;;
18711;SDS011;9485;49.386;8.674;2022-09-03T10:12:17;2.00;;;1.80;;
18711;SDS011;9485;49.386;8.674;2022-09-03T10:17:49;3.05;;;2.35;;
18711;SDS011;9485;49.386;8.674;2022-09-03T10:23:21;1.73;;;1.63;;
18711;SDS011;9485;49.386;8.674;2022-09-03T10:28:47;2.88;;;1.88;;
18711;SDS011;9485;49.386;8.674;2022-09-03T10:34:13;2.30;;;2.10;;
18711;SDS011;9485;49.386;8.674;2022-09-03T10:39:48;2.53;;;1.90;;
18711;SDS011;9485;49.386;8.674;2022-09-03T10:45:36;2.17;;;2.08;;
18711;SDS011;9485;49.386;8.674;2022-09-03T10:51:08;1.98;;;1.88;;
18711;SDS011;9485;49.386;8.674;2022-09-03T10:56:41;1.63;;;1.52;;
18711;SDS011;9485;49.386;8.674;2022-09-03T11:02:18;2.30;;;1.90;;
18711;SDS011;9485;49.386;8.674;2022-09-03T11:08:04;2.08;;;1.85;;
18711;SDS011;9485;49.386;8.674;2022-09-03T11:13:37;2.20;;;1.80;;
18711;SDS011;9485;49.386;8.674;2022-09-03T11:19:06;2.40;;;2.20;;
18711;SDS011;9485;49.386;8.674;2022-09-03T11:24:34;2.10;;;1.95;;
18711;SDS011;9485;49.386;8.674;2022-09-03T11:30:01;2.15;;;2.00;;
18711;SDS011;9485;49.386;8.674;2022-09-03T11:35:27;2.00;;;1.90;;
18711;SDS011;9485;49.386;8.674;2022-09-03T11:41:00;2.00;;;1.75;;
18711;SDS011;9485;49.386;8.674;2022-09-03T11:46:33;1.80;;;1.70;;
18711;SDS011;9485;49.386;8.674;2022-09-03T11:51:55;1.80;;;1.70;;
18711;SDS011;9485;49.386;8.674;2022-09-03T11:57:22;1.58;;;1.48;;
18711;SDS011;9485;49.386;8.674;2022-09-03T12:02:49;1.30;;;1.20;;
18711;SDS011;9485;49.386;8.674;2022-09-03T12:08:28;1.30;;;1.20;;
18711;SDS011;9485;49.386;8.674;2022-09-03T12:14:29;1.20;;;1.10;;
18711;SDS011;9485;49.386;8.674;2022-09-03T12:20:01;1.67;;;1.55;;
18711;SDS011;9485;49.386;8.674;2022-09-03T12:25:30;1.27;;;1.17;;
18711;SDS011;9485;49.386;8.674;2022-09-03T12:30:52;1.33;;;1.23;;
18711;SDS011;9485;49.386;8.674;2022-09-03T12:36:14;1.90;;;1.27;;
18711;SDS011;9485;49.386;8.674;2022-09-03T12:41:35;1.40;;;1.30;;
18711;SDS011;9485;49.386;8.674;2022-09-03T12:46:59;1.23;;;1.13;;
18711;SDS011;9485;49.386;8.674;2022-09-03T12:52:28;1.60;;;1.50;;
18711;SDS011;9485;49.386;8.674;2022-09-03T12:57:56;1.65;;;1.55;;
18711;SDS011;9485;49.386;8.674;2022-09-03T13:03:26;2.05;;;1.80;;
18711;SDS011;9485;49.386;8.674;2022-09-03T13:08:55;1.90;;;1.80;;
18711;SDS011;9485;49.386;8.674;2022-09-03T13:14:19;1.90;;;1.80;;
18711;SDS011;9485;49.386;8.674;2022-09-03T13:19:43;2.13;;;1.90;;
18711;SDS011;9485;49.386;8.674;2022-09-03T13:25:21;2.63;;;1.88;;
18711;SDS011;9485;49.386;8.674;2022-09-03T13:30:50;1.88;;;1.77;;
18711;SDS011;9485;49.386;8.674;2022-09-03T13:36:19;5.05;;;2.72;;
18711;SDS011;9485;49.386;8.674;2022-09-03T13:41:47;1.98;;;1.80;;
18711;SDS011;9485;49.386;8.674;2022-09-03T13:47:15;1.92;;;1.83;;
18711;SDS011;9485;49.386;8.674;2022-09-03T13:52:48;2.50;;;2.30;;
18711;SDS011;9485;49.386;8.674;2022-09-03T13:58:20;2.40;;;2.20;;
18711;SDS011;9485;49.386;8.674;2022-09-03T14:03:49;2.28;;;2.08;;
18711;SDS011;9485;49.386;8.674;2022-09-03T14:09:22;2.25;;;2.15;;
18711;SDS011;9485;49.386;8.674;2022-09-03T14:15:00;2.55;;;2.35;;
18711;SDS011;9485;49.386;8.674;2022-09-03T14:20:35;2.58;;;2.35;;
18711;SDS011;9485;49.386;8.674;2022-09-03T14:26:06;2.42;;;2.22;;
18711;SDS011;9485;49.386;8.674;2022-09-03T14:31:46;2.83;;;2.20;;
18711;SDS011;9485;49.386;8.674;2022-09-03T14:37:29;2.60;;;2.40;;
18711;SDS011;9485;49.386;8.674;2022-09-03T14:43:12;2.50;;;2.30;;
18711;SDS011;9485;49.386;8.674;2022-09-03T14:49:09;2.70;;;2.47;;
18711;SDS011;9485;49.386;8.674;2022-09-03T14:54:48;2.58;;;2.38;;
18711;SDS011;9485;49.386;8.674;2022-09-03T15:00:33;2.67;;;2.47;;
18711;SDS011;9485;49.386;8.674;2022-09-03T15:06:12;3.20;;;2.97;;
18711;SDS011;9485;49.386;8.674;2022-09-03T15:11:46;3.63;;;2.90;;
18711;SDS011;9485;49.386;8.674;2022-09-03T15:17:18;2.97;;;2.78;;
18711;SDS011;9485;49.386;8.674;2022-09-03T15:23:04;3.58;;;3.28;;
18711;SDS011;9485;49.386;8.674;2022-09-03T15:28:45;3.30;;;2.97;;
18711;SDS011;9485;49.386;8.674;2022-09-03T15:40:26;3.70;;;3.28;;
18711;SDS011;9485;49.386;8.674;2022-09-03T15:45:51;3.38;;;2.72;;
18711;SDS011;9485;49.386;8.674;2022-09-03T15:51:16;3.08;;;2.88;;
18711;SDS011;9485;49.386;8.674;2022-09-03T15:56:48;2.90;;;2.70;;
18711;SDS011;9485;49.386;8.674;2022-09-03T16:02:16;3.80;;;2.97;;
18711;SDS011;9485;49.386;8.674;2022-09-03T16:08:02;3.35;;;3.05;;
18711;SDS011;9485;49.386;8.674;2022-09-03T16:13:46;3.33;;;3.03;;
18711;SDS011;9485;49.386;8.674;2022-09-03T16:19:20;3.78;;;3.42;;
18711;SDS011;9485;49.386;8.674;2022-09-03T16:24:47;4.82;;;3.10;;
18711;SDS011;9485;49.386;8.674;2022-09-03T16:30:20;3.90;;;3.60;;
18711;SDS011;9485;49.386;8.674;2022-09-03T16:35:54;4.22;;;3.83;;
18711;SDS011;9485;49.386;8.674;2022-09-03T16:41:28;3.75;;;3.45;;
18711;SDS011;9485;49.386;8.674;2022-09-03T16:46:58;4.13;;;3.72;;
18711;SDS011;9485;49.386;8.674;2022-09-03T16:52:32;3.53;;;3.28;;
18711;SDS011;9485;49.386;8.674;2022-09-03T16:58:13;4.03;;;3.70;;
18711;SDS011;9485;49.386;8.674;2022-09-03T17:03:46;3.95;;;3.55;;
18711;SDS011;9485;49.386;8.674;2022-09-03T17:09:32;3.30;;;3.00;;
18711;SDS011;9485;49.386;8.674;2022-09-03T17:15:19;4.60;;;4.15;;
18711;SDS011;9485;49.386;8.674;2022-09-03T17:21:04;4.38;;;3.97;;
18711;SDS011;9485;49.386;8.674;2022-09-03T17:26:38;3.95;;;3.55;;
18711;SDS011;9485;49.386;8.674;2022-09-03T17:32:18;2.85;;;2.60;;
18711;SDS011;9485;49.386;8.674;2022-09-03T17:38:01;3.08;;;2.78;;
18711;SDS011;9485;49.386;8.674;2022-09-03T17:43:40;3.10;;;2.80;;
18711;SDS011;9485;49.386;8.674;2022-09-03T17:49:08;2.45;;;2.25;;
18711;SDS011;9485;49.386;8.674;2022-09-03T17:54:42;3.08;;;2.78;;
18711;SDS011;9485;49.386;8.674;2022-09-03T18:00:10;2.13;;;1.95;;
18711;SDS011;9485;49.386;8.674;2022-09-03T18:05:42;2.92;;;2.05;;
18711;SDS011;9485;49.386;8.674;2022-09-03T18:11:10;2.42;;;2.22;;
18711;SDS011;9485;49.386;8.674;2022-09-03T18:16:38;3.35;;;2.08;;
18711;SDS011;9485;49.386;8.674;2022-09-03T18:22:07;2.42;;;2.22;;
18711;SDS011;9485;49.386;8.674;2022-09-03T18:27:48;2.40;;;2.20;;
18711;SDS011;9485;49.386;8.674;2022-09-03T18:33:33;2.67;;;2.20;;
18711;SDS011;9485;49.386;8.674;2022-09-03T18:39:14;3.58;;;2.58;;
18711;SDS011;9485;49.386;8.674;2022-09-03T18:45:06;2.90;;;2.30;;
18711;SDS011;9485;49.386;8.674;2022-09-03T18:51:00;2.25;;;2.08;;
18711;SDS011;9485;49.386;8.674;2022-09-03T18:56:49;3.05;;;2.00;;
18711;SDS011;9485;49.386;8.674;2022-09-03T19:02:32;2.85;;;2.65;;
18711;SDS011;9485;49.386;8.674;2022-09-03T19:08:23;2.08;;;1.98;;
18711;SDS011;9485;49.386;8.674;2022-09-03T19:14:14;1.80;;;1.70;;
18711;SDS011;9485;49.386;8.674;2022-09-03T19:20:06;1.83;;;1.73;;
18711;SDS011;9485;49.386;8.674;2022-09-03T19:25:52;2.40;;;2.20;;
18711;SDS011;9485;49.386;8.674;2022-09-03T19:31:42;2.22;;;2.03;;
18711;SDS011;9485;49.386;8.674;2022-09-03T19:37:31;2.75;;;1.80;;
18711;SDS011;9485;49.386;8.674;2022-09-03T19:43:21;2.17;;;2.00;;
18711;SDS011;9485;49.386;8.674;2022-09-03T19:49:16;1.70;;;1.60;;
18711;SDS011;9485;49.386;8.674;2022-09-03T19:55:08;2.00;;;1.67;;
18711;SDS011;9485;49.386;8.674;2022-09-03T20:00:53;2.05;;;1.90;;
18711;SDS011;9485;49.386;8.674;2022-09-03T20:06:32;2.17;;;2.03;;
18711;SDS011;9485;49.386;8.674;2022-09-03T20:12:15;2.03;;;1.83;;
18711;SDS011;9485;49.386;8.674;2022-09-03T20:17:41;2.78;;;1.98;;
18711;SDS011;9485;49.386;8.674;2022-09-03T20:23:17;2.90;;;2.30;;
18711;SDS011;9485;49.386;8.674;2022-09-03T20:28:53;2.65;;;1.73;;
18711;SDS011;9485;49.386;8.674;2022-09-03T20:34:35;2.30;;;2.10;;
18711;SDS011;9485;49.386;8.674;2022-09-03T20:40:10;2.10;;;1.90;;
18711;SDS011;9485;49.386;8.674;2022-09-03T20:45:48;1.90;;;1.80;;
18711;SDS011;9485;49.386;8.674;2022-09-03T20:51:31;2.13;;;1.67;;
18711;SDS011;9485;49.386;8.674;2022-09-03T20:57:03;2.72;;;2.03;;
18711;SDS011;9485;49.386;8.674;2022-09-03T21:02:55;2.20;;;2.00;;
18711;SDS011;9485;49.386;8.674;2022-09-03T21:08:42;1.60;;;1.50;;
18711;SDS011;9485;49.386;8.674;2022-09-03T21:14:22;3.90;;;1.50;;
18711;SDS011;9485;49.386;8.674;2022-09-03T21:19:57;1.73;;;1.63;;
18711;SDS011;9485;49.386;8.674;2022-09-03T21:25:31;3.03;;;2.47;;
18711;SDS011;9485;49.386;8.674;2022-09-03T21:30:59;2.08;;;1.88;;
18711;SDS011;9485;49.386;8.674;2022-09-03T21:36:29;2.20;;;2.00;;
18711;SDS011;9485;49.386;8.674;2022-09-03T21:41:56;2.00;;;1.80;;
18711;SDS011;9485;49.386;8.674;2022-09-03T21:47:26;2.22;;;2.00;;
18711;SDS011;9485;49.386;8.674;2022-09-03T21:52:54;2.20;;;2.00;;
18711;SDS011;9485;49.386;8.674;2022-09-03T21:58:24;3.15;;;1.85;;
18711;SDS011;9485;49.386;8.674;2022-09-03T22:04:01;2.50;;;2.03;;
18711;SDS011;9485;49.386;8.674;2022-09-03T22:09:23;1.70;;;1.60;;
18711;SDS011;9485;49.386;8.674;2022-09-03T22:14:52;2.33;;;1.90;;
18711;SDS011;9485;49.386;8.674;2022-09-03T22:20:15;1.88;;;1.77;;
18711;SDS011;9485;49.386;8.674;2022-09-03T22:25:39;1.40;;;1.30;;
18711;SDS011;9485;49.386;8.674;2022-09-03T22:31:11;2.08;;;1.90;;
18711;SDS011;9485;49.386;8.674;2022-09-03T22:36:43;2.30;;;2.10;;
18711;SDS011;9485;49.386;8.674;2022-09-03T22:42:16;1.80;;;1.70;;
18711;SDS011;9485;49.386;8.674;2022-09-03T22:47:52;2.33;;;2.13;;
18711;SDS011;9485;49.386;8.674;2022-09-03T22:53:44;1.90;;;1.80;;
18711;SDS011;9485;49.386;8.674;2022-09-03T22:59:25;2.30;;;1.60;;
18711;SDS011;9485;49.386;8.674;2022-09-03T23:04:54;1.83;;;1.73;;
18711;SDS011;9485;49.386;8.674;2022-09-03T23:10:25;1.90;;;1.80;;
18711;SDS011;9485;49.386;8.674;2022-09-03T23:15:58;2.77;;;1.77;;
18711;SDS011;9485;49.386;8.674;2022-09-03T23:21:27;2.30;;;1.60;;
18711;SDS011;9485;49.386;8.674;2022-09-03T23:26:58;1.90;;;1.80;;
18711;SDS011;9485;49.386;8.674;2022-09-03T23:32:26;1.93;;;1.83;;
18711;SDS011;9485;49.386;8.674;2022-09-03T23:37:52;3.67;;;2.10;;
18711;SDS011;9485;49.386;8.674;2022-09-03T23:49:35;1.97;;;1.77;;
18711;SDS011;9485;49.386;8.674;2022-09-03T23:55:11;2.63;;;2.43;;
